メインページ
METAR-TAF:

METAR-TAF

空港 :

宮崎空港

宮崎, 日本

緯度: 31-52N, 経度: 131-27E, 海抜: 6m

現時点の気象観測

当レポートは54分前の11:00(UTC)に作成
北/北東の風 16kt
気温 20°C
湿度 83%
気圧 1016 hPa
視程10km以上
高度2500ftの雲はほとんどない
高度5000ftの雲は散在している
高度12000ftの千切れ雲あり
小雨

METAR: RJFM 201100Z 03016KT 9999 -RA FEW025 SCT050 BKN120 20/17 Q1016

時間: 20:54 (11:54 UTC)

予報

当レポートは47分前の11:07(UTC)に作成
予報は20日の 12時(UTC)から 21日の 18時(UTC)まで有効
北東の風 22kt
視程: 7000m
高度500ftの雲はほとんどない
高度1000ftの雲は散在している
高度2000ftの千切れ雲あり
弱いにわか雨
20日の 12時(UTC)から 20日の 18時(UTC)まで一時的に
視程: 3000m
高度400ftの雲はほとんどない
高度800ftの千切れ雲あり
高度1200ftの千切れ雲あり
にわか雨, 靄
20日の 18時(UTC)から 20日の 21時(UTC)まで一時的に
北東の風 27kt、最大37ktの突風を伴う
視程: 4000m
弱いにわか雨, 靄
20日の 21時(UTC)から 21日の 00時(UTC)まで一時的に
北東の風 27kt、最大37ktの突風を伴う
21日の 06時(UTC)から 21日の 12時(UTC)まで一時的に
視程: 4000m
弱いにわか雨, 靄
21日の 12時(UTC)から 21日の 18時(UTC)まで一時的に
視程: 3000m
高度400ftの雲はほとんどない
高度800ftの千切れ雲あり
高度1200ftの千切れ雲あり
にわか雨, 靄

TAF: RJFM 201107Z 2012/2118 05022KT 7000 -SHRA FEW005 SCT010 BKN020 TEMPO 2012/2018 3000 SHRA BR FEW004 BKN008 BKN012 TEMPO 2018/2021 05027G37KT 4000 -SHRA BR TEMPO 2021/2100 05027G37KT TEMPO 2106/2112 4000 -SHRA BR TEMPO 2112/2118 3000 SHRA BR FEW004 BKN008 BKN012

4,000以上の空港の気象観測と天気予報(METAR報とTAF報)

利用可能な観測所は地図上に黄色い丸と赤い丸で示す。

丸の上にカーソルを重ねると観測所名を参照できる。

次にクリックすると気象観測と天気予報を参照できる。

マップの切り替え:黒色「×」印の緑ボタンをクリックして拡大、「-」印の緑ボタンをクリックして縮小、緑色の三角印をクリックして隣りの地図に切り替え


METAR-TAF: